sensor_id;sensor_type;location;lat;lon;timestamp;P1;durP1;ratioP1;P2;durP2;ratioP2
66400;SDS011;53211;45.040;38.788;2022-11-13T00:00:19;553.70;;;230.95;;
66400;SDS011;53211;45.040;38.788;2022-11-13T00:03:03;553.72;;;232.18;;
66400;SDS011;53211;45.040;38.788;2022-11-13T00:05:48;554.20;;;232.70;;
66400;SDS011;53211;45.040;38.788;2022-11-13T00:08:43;556.00;;;224.10;;
66400;SDS011;53211;45.040;38.788;2022-11-13T00:11:27;555.45;;;234.40;;
66400;SDS011;53211;45.040;38.788;2022-11-13T00:14:12;575.37;;;213.63;;
66400;SDS011;53211;45.040;38.788;2022-11-13T00:16:59;559.90;;;231.60;;
66400;SDS011;53211;45.040;38.788;2022-11-13T00:19:44;556.23;;;229.37;;
66400;SDS011;53211;45.040;38.788;2022-11-13T00:22:30;550.23;;;231.23;;
66400;SDS011;53211;45.040;38.788;2022-11-13T00:25:14;570.90;;;218.05;;
66400;SDS011;53211;45.040;38.788;2022-11-13T00:27:59;575.50;;;217.15;;
66400;SDS011;53211;45.040;38.788;2022-11-13T00:30:44;569.60;;;220.70;;
66400;SDS011;53211;45.040;38.788;2022-11-13T00:33:28;569.10;;;225.50;;
66400;SDS011;53211;45.040;38.788;2022-11-13T00:36:16;573.70;;;221.00;;
66400;SDS011;53211;45.040;38.788;2022-11-13T00:39:03;569.20;;;221.20;;
66400;SDS011;53211;45.040;38.788;2022-11-13T00:41:47;571.37;;;218.30;;
66400;SDS011;53211;45.040;38.788;2022-11-13T00:44:31;569.57;;;217.30;;
66400;SDS011;53211;45.040;38.788;2022-11-13T00:47:15;574.30;;;217.25;;
66400;SDS011;53211;45.040;38.788;2022-11-13T00:50:00;572.60;;;220.35;;
66400;SDS011;53211;45.040;38.788;2022-11-13T00:52:44;568.30;;;223.40;;
66400;SDS011;53211;45.040;38.788;2022-11-13T00:55:28;562.43;;;220.97;;
66400;SDS011;53211;45.040;38.788;2022-11-13T00:58:13;572.45;;;220.60;;
66400;SDS011;53211;45.040;38.788;2022-11-13T01:01:08;577.30;;;217.95;;
66400;SDS011;53211;45.040;38.788;2022-11-13T01:03:54;555.40;;;237.67;;
66400;SDS011;53211;45.040;38.788;2022-11-13T01:06:39;553.13;;;231.33;;
66400;SDS011;53211;45.040;38.788;2022-11-13T01:09:24;560.95;;;225.00;;
66400;SDS011;53211;45.040;38.788;2022-11-13T01:12:08;566.80;;;220.60;;
66400;SDS011;53211;45.040;38.788;2022-11-13T01:14:52;567.35;;;222.05;;
66400;SDS011;53211;45.040;38.788;2022-11-13T01:17:36;570.85;;;218.70;;
66400;SDS011;53211;45.040;38.788;2022-11-13T01:20:22;566.50;;;217.80;;
66400;SDS011;53211;45.040;38.788;2022-11-13T01:23:07;568.80;;;218.15;;
66400;SDS011;53211;45.040;38.788;2022-11-13T01:25:51;624.70;;;169.25;;
66400;SDS011;53211;45.040;38.788;2022-11-13T01:28:36;561.65;;;223.65;;
66400;SDS011;53211;45.040;38.788;2022-11-13T01:31:22;565.87;;;226.73;;
66400;SDS011;53211;45.040;38.788;2022-11-13T01:34:09;565.00;;;221.90;;
66400;SDS011;53211;45.040;38.788;2022-11-13T01:36:54;560.60;;;219.75;;
66400;SDS011;53211;45.040;38.788;2022-11-13T01:39:38;555.65;;;223.80;;
66400;SDS011;53211;45.040;38.788;2022-11-13T01:42:22;555.35;;;224.90;;
66400;SDS011;53211;45.040;38.788;2022-11-13T01:48:33;560.10;;;217.57;;
66400;SDS011;53211;45.040;38.788;2022-11-13T01:51:28;562.25;;;224.35;;
66400;SDS011;53211;45.040;38.788;2022-11-13T01:54:21;566.50;;;225.55;;
66400;SDS011;53211;45.040;38.788;2022-11-13T01:57:07;566.30;;;223.10;;
66400;SDS011;53211;45.040;38.788;2022-11-13T01:59:54;640.10;;;161.00;;
66400;SDS011;53211;45.040;38.788;2022-11-13T02:02:43;633.55;;;163.80;;
66400;SDS011;53211;45.040;38.788;2022-11-13T02:05:28;639.75;;;162.65;;
66400;SDS011;53211;45.040;38.788;2022-11-13T02:08:12;626.80;;;169.00;;
66400;SDS011;53211;45.040;38.788;2022-11-13T02:10:57;640.00;;;161.90;;
66400;SDS011;53211;45.040;38.788;2022-11-13T02:13:41;652.53;;;157.73;;
66400;SDS011;53211;45.040;38.788;2022-11-13T02:16:27;570.53;;;224.77;;
66400;SDS011;53211;45.040;38.788;2022-11-13T02:19:20;574.35;;;212.40;;
66400;SDS011;53211;45.040;38.788;2022-11-13T02:24:57;575.65;;;202.80;;
66400;SDS011;53211;45.040;38.788;2022-11-13T02:27:45;601.75;;;179.85;;
66400;SDS011;53211;45.040;38.788;2022-11-13T02:30:32;595.60;;;180.20;;
66400;SDS011;53211;45.040;38.788;2022-11-13T02:33:25;583.00;;;196.50;;
66400;SDS011;53211;45.040;38.788;2022-11-13T02:36:13;583.30;;;185.80;;
66400;SDS011;53211;45.040;38.788;2022-11-13T02:39:00;593.10;;;184.97;;
66400;SDS011;53211;45.040;38.788;2022-11-13T02:41:49;579.87;;;201.50;;
66400;SDS011;53211;45.040;38.788;2022-11-13T02:44:33;584.40;;;200.80;;
66400;SDS011;53211;45.040;38.788;2022-11-13T02:47:17;582.60;;;195.70;;
66400;SDS011;53211;45.040;38.788;2022-11-13T02:50:02;592.45;;;189.00;;
66400;SDS011;53211;45.040;38.788;2022-11-13T02:52:47;588.90;;;190.05;;
66400;SDS011;53211;45.040;38.788;2022-11-13T02:55:32;587.35;;;191.60;;
66400;SDS011;53211;45.040;38.788;2022-11-13T02:58:16;572.10;;;208.55;;
66400;SDS011;53211;45.040;38.788;2022-11-13T03:01:01;574.43;;;208.30;;
66400;SDS011;53211;45.040;38.788;2022-11-13T03:03:47;592.75;;;190.80;;
66400;SDS011;53211;45.040;38.788;2022-11-13T03:06:31;578.00;;;204.35;;
66400;SDS011;53211;45.040;38.788;2022-11-13T03:09:15;575.87;;;203.67;;
66400;SDS011;53211;45.040;38.788;2022-11-13T03:11:59;577.05;;;204.10;;
66400;SDS011;53211;45.040;38.788;2022-11-13T03:14:43;584.55;;;195.45;;
66400;SDS011;53211;45.040;38.788;2022-11-13T03:17:31;557.60;;;225.85;;
66400;SDS011;53211;45.040;38.788;2022-11-13T03:20:16;569.25;;;213.85;;
66400;SDS011;53211;45.040;38.788;2022-11-13T03:23:01;563.05;;;212.05;;
66400;SDS011;53211;45.040;38.788;2022-11-13T03:25:45;558.45;;;224.35;;
66400;SDS011;53211;45.040;38.788;2022-11-13T03:28:29;610.00;;;178.30;;
66400;SDS011;53211;45.040;38.788;2022-11-13T03:31:14;567.20;;;218.55;;
66400;SDS011;53211;45.040;38.788;2022-11-13T03:33:59;561.70;;;216.05;;
66400;SDS011;53211;45.040;38.788;2022-11-13T03:36:43;566.30;;;215.10;;
66400;SDS011;53211;45.040;38.788;2022-11-13T03:39:27;650.47;;;154.30;;
66400;SDS011;53211;45.040;38.788;2022-11-13T03:42:11;598.20;;;182.10;;
66400;SDS011;53211;45.040;38.788;2022-11-13T03:44:56;593.05;;;182.20;;
66400;SDS011;53211;45.040;38.788;2022-11-13T03:47:40;600.75;;;183.35;;
66400;SDS011;53211;45.040;38.788;2022-11-13T03:50:24;602.80;;;180.35;;
66400;SDS011;53211;45.040;38.788;2022-11-13T03:53:09;599.47;;;183.33;;
66400;SDS011;53211;45.040;38.788;2022-11-13T03:55:53;601.10;;;180.63;;
66400;SDS011;53211;45.040;38.788;2022-11-13T03:58:38;620.40;;;173.20;;
66400;SDS011;53211;45.040;38.788;2022-11-13T04:01:23;601.05;;;179.05;;
66400;SDS011;53211;45.040;38.788;2022-11-13T04:04:07;597.75;;;183.45;;
66400;SDS011;53211;45.040;38.788;2022-11-13T04:06:51;661.65;;;155.40;;
66400;SDS011;53211;45.040;38.788;2022-11-13T04:09:36;664.60;;;149.55;;
66400;SDS011;53211;45.040;38.788;2022-11-13T04:12:20;653.43;;;155.00;;
66400;SDS011;53211;45.040;38.788;2022-11-13T04:15:04;658.13;;;154.00;;
66400;SDS011;53211;45.040;38.788;2022-11-13T04:17:50;651.60;;;155.40;;
66400;SDS011;53211;45.040;38.788;2022-11-13T04:20:34;648.17;;;158.13;;
66400;SDS011;53211;45.040;38.788;2022-11-13T04:23:19;649.55;;;155.80;;
66400;SDS011;53211;45.040;38.788;2022-11-13T04:26:03;653.80;;;154.65;;
66400;SDS011;53211;45.040;38.788;2022-11-13T04:28:48;652.45;;;154.85;;
66400;SDS011;53211;45.040;38.788;2022-11-13T04:31:32;586.00;;;203.00;;
66400;SDS011;53211;45.040;38.788;2022-11-13T04:34:17;530.33;;;241.77;;
66400;SDS011;53211;45.040;38.788;2022-11-13T04:37:01;600.20;;;179.00;;
66400;SDS011;53211;45.040;38.788;2022-11-13T04:39:46;591.45;;;183.90;;
66400;SDS011;53211;45.040;38.788;2022-11-13T04:42:30;571.90;;;206.00;;
66400;SDS011;53211;45.040;38.788;2022-11-13T04:45:33;602.27;;;175.80;;
66400;SDS011;53211;45.040;38.788;2022-11-13T04:48:18;564.23;;;213.67;;
66400;SDS011;53211;45.040;38.788;2022-11-13T04:51:02;561.80;;;211.90;;
66400;SDS011;53211;45.040;38.788;2022-11-13T04:53:48;540.42;;;217.13;;
66400;SDS011;53211;45.040;38.788;2022-11-13T04:56:32;570.85;;;204.35;;
66400;SDS011;53211;45.040;38.788;2022-11-13T04:59:16;446.80;;;94.30;;
66400;SDS011;53211;45.040;38.788;2022-11-13T05:02:02;544.53;;;210.93;;
66400;SDS011;53211;45.040;38.788;2022-11-13T05:04:50;514.70;;;215.23;;
66400;SDS011;53211;45.040;38.788;2022-11-13T05:07:35;501.15;;;201.68;;
66400;SDS011;53211;45.040;38.788;2022-11-13T05:10:20;539.30;;;239.35;;
66400;SDS011;53211;45.040;38.788;2022-11-13T05:13:05;546.35;;;234.50;;
66400;SDS011;53211;45.040;38.788;2022-11-13T05:15:50;542.28;;;238.05;;
66400;SDS011;53211;45.040;38.788;2022-11-13T05:18:42;554.70;;;222.17;;
66400;SDS011;53211;45.040;38.788;2022-11-13T05:21:27;522.10;;;228.70;;
66400;SDS011;53211;45.040;38.788;2022-11-13T05:24:11;511.17;;;219.93;;
66400;SDS011;53211;45.040;38.788;2022-11-13T05:26:56;502.23;;;181.48;;
66400;SDS011;53211;45.040;38.788;2022-11-13T05:29:41;478.65;;;133.23;;
66400;SDS011;53211;45.040;38.788;2022-11-13T05:32:26;533.53;;;229.80;;
66400;SDS011;53211;45.040;38.788;2022-11-13T05:35:15;543.78;;;231.55;;
66400;SDS011;53211;45.040;38.788;2022-11-13T05:38:02;643.13;;;160.60;;
66400;SDS011;53211;45.040;38.788;2022-11-13T05:40:47;505.23;;;204.93;;
66400;SDS011;53211;45.040;38.788;2022-11-13T05:43:34;484.48;;;149.02;;
66400;SDS011;53211;45.040;38.788;2022-11-13T05:46:24;536.65;;;225.70;;
66400;SDS011;53211;45.040;38.788;2022-11-13T05:49:11;508.80;;;212.50;;
66400;SDS011;53211;45.040;38.788;2022-11-13T05:51:56;472.10;;;113.00;;
66400;SDS011;53211;45.040;38.788;2022-11-13T06:02:55;526.90;;;239.95;;
66400;SDS011;53211;45.040;38.788;2022-11-13T06:08:27;513.15;;;193.70;;
66400;SDS011;53211;45.040;38.788;2022-11-13T06:11:13;458.23;;;101.35;;
66400;SDS011;53211;45.040;38.788;2022-11-13T06:14:03;470.10;;;111.60;;
66400;SDS011;53211;45.040;38.788;2022-11-13T06:16:50;476.90;;;123.20;;
66400;SDS011;53211;45.040;38.788;2022-11-13T06:22:20;509.10;;;184.45;;
66400;SDS011;53211;45.040;38.788;2022-11-13T06:25:04;504.90;;;179.70;;
66400;SDS011;53211;45.040;38.788;2022-11-13T06:27:49;504.67;;;179.60;;
66400;SDS011;53211;45.040;38.788;2022-11-13T06:30:33;534.30;;;247.55;;
66400;SDS011;53211;45.040;38.788;2022-11-13T06:33:18;523.40;;;219.77;;
66400;SDS011;53211;45.040;38.788;2022-11-13T06:36:06;511.85;;;192.65;;
66400;SDS011;53211;45.040;38.788;2022-11-13T06:38:53;546.55;;;250.25;;
66400;SDS011;53211;45.040;38.788;2022-11-13T06:41:38;558.85;;;250.65;;
66400;SDS011;53211;45.040;38.788;2022-11-13T06:44:22;542.65;;;251.50;;
66400;SDS011;53211;45.040;38.788;2022-11-13T06:47:06;593.17;;;226.33;;
66400;SDS011;53211;45.040;38.788;2022-11-13T06:49:52;546.58;;;256.13;;
66400;SDS011;53211;45.040;38.788;2022-11-13T06:52:36;567.20;;;249.70;;
66400;SDS011;53211;45.040;38.788;2022-11-13T06:55:21;574.67;;;246.43;;
66400;SDS011;53211;45.040;38.788;2022-11-13T06:58:06;593.30;;;228.90;;
66400;SDS011;53211;45.040;38.788;2022-11-13T07:00:51;549.53;;;257.67;;
66400;SDS011;53211;45.040;38.788;2022-11-13T07:03:36;552.00;;;252.85;;
66400;SDS011;53211;45.040;38.788;2022-11-13T07:06:22;555.60;;;257.10;;
66400;SDS011;53211;45.040;38.788;2022-11-13T07:09:07;567.40;;;256.25;;
66400;SDS011;53211;45.040;38.788;2022-11-13T07:11:51;579.35;;;241.75;;
66400;SDS011;53211;45.040;38.788;2022-11-13T07:14:36;596.95;;;231.85;;
66400;SDS011;53211;45.040;38.788;2022-11-13T07:17:20;608.35;;;215.60;;
66400;SDS011;53211;45.040;38.788;2022-11-13T07:20:04;583.20;;;239.95;;
66400;SDS011;53211;45.040;38.788;2022-11-13T07:22:49;579.35;;;246.15;;
66400;SDS011;53211;45.040;38.788;2022-11-13T07:25:33;598.80;;;229.70;;
66400;SDS011;53211;45.040;38.788;2022-11-13T07:28:18;590.30;;;240.27;;
66400;SDS011;53211;45.040;38.788;2022-11-13T07:31:02;587.75;;;237.35;;
66400;SDS011;53211;45.040;38.788;2022-11-13T07:33:47;593.47;;;233.77;;
66400;SDS011;53211;45.040;38.788;2022-11-13T07:36:33;588.90;;;236.70;;
66400;SDS011;53211;45.040;38.788;2022-11-13T07:39:17;576.75;;;250.55;;
66400;SDS011;53211;45.040;38.788;2022-11-13T07:42:01;589.40;;;235.70;;
66400;SDS011;53211;45.040;38.788;2022-11-13T07:44:46;600.30;;;222.50;;
66400;SDS011;53211;45.040;38.788;2022-11-13T07:47:30;586.95;;;240.10;;
66400;SDS011;53211;45.040;38.788;2022-11-13T07:50:15;575.60;;;252.45;;
66400;SDS011;53211;45.040;38.788;2022-11-13T07:53:01;597.80;;;226.75;;
66400;SDS011;53211;45.040;38.788;2022-11-13T07:55:47;605.57;;;219.60;;
66400;SDS011;53211;45.040;38.788;2022-11-13T07:58:31;585.25;;;242.95;;
66400;SDS011;53211;45.040;38.788;2022-11-13T08:01:16;579.80;;;246.50;;
66400;SDS011;53211;45.040;38.788;2022-11-13T08:04:00;602.10;;;228.53;;
66400;SDS011;53211;45.040;38.788;2022-11-13T08:06:45;615.50;;;211.70;;
66400;SDS011;53211;45.040;38.788;2022-11-13T08:09:29;602.75;;;225.85;;
66400;SDS011;53211;45.040;38.788;2022-11-13T08:12:13;590.20;;;252.00;;
66400;SDS011;53211;45.040;38.788;2022-11-13T08:14:58;581.70;;;245.80;;
66400;SDS011;53211;45.040;38.788;2022-11-13T08:17:43;583.10;;;249.40;;
66400;SDS011;53211;45.040;38.788;2022-11-13T08:20:28;561.95;;;265.20;;
66400;SDS011;53211;45.040;38.788;2022-11-13T08:23:13;572.77;;;256.33;;
66400;SDS011;53211;45.040;38.788;2022-11-13T08:26:02;638.23;;;196.53;;
66400;SDS011;53211;45.040;38.788;2022-11-13T08:28:47;656.20;;;175.33;;
66400;SDS011;53211;45.040;38.788;2022-11-13T08:31:32;667.60;;;174.00;;
66400;SDS011;53211;45.040;38.788;2022-11-13T08:34:16;681.83;;;170.63;;
66400;SDS011;53211;45.040;38.788;2022-11-13T08:37:01;668.90;;;176.45;;
66400;SDS011;53211;45.040;38.788;2022-11-13T08:39:45;655.10;;;184.57;;
66400;SDS011;53211;45.040;38.788;2022-11-13T08:42:29;661.10;;;181.30;;
66400;SDS011;53211;45.040;38.788;2022-11-13T08:45:14;663.20;;;178.55;;
66400;SDS011;53211;45.040;38.788;2022-11-13T08:47:59;662.47;;;183.73;;
66400;SDS011;53211;45.040;38.788;2022-11-13T08:50:45;671.90;;;171.20;;
66400;SDS011;53211;45.040;38.788;2022-11-13T08:53:29;661.60;;;182.30;;
66400;SDS011;53211;45.040;38.788;2022-11-13T08:56:13;659.30;;;182.50;;
66400;SDS011;53211;45.040;38.788;2022-11-13T08:58:57;650.95;;;192.85;;
66400;SDS011;53211;45.040;38.788;2022-11-13T09:01:42;669.63;;;173.73;;
66400;SDS011;53211;45.040;38.788;2022-11-13T09:04:26;652.90;;;185.45;;
66400;SDS011;53211;45.040;38.788;2022-11-13T09:07:11;650.95;;;185.30;;
66400;SDS011;53211;45.040;38.788;2022-11-13T09:09:56;650.60;;;183.40;;
66400;SDS011;53211;45.040;38.788;2022-11-13T09:12:40;655.90;;;187.43;;
66400;SDS011;53211;45.040;38.788;2022-11-13T09:15:24;655.80;;;184.70;;
66400;SDS011;53211;45.040;38.788;2022-11-13T09:18:09;658.65;;;187.55;;
66400;SDS011;53211;45.040;38.788;2022-11-13T09:20:54;659.53;;;188.70;;
66400;SDS011;53211;45.040;38.788;2022-11-13T09:23:38;658.03;;;183.47;;
66400;SDS011;53211;45.040;38.788;2022-11-13T09:26:23;647.57;;;181.47;;
66400;SDS011;53211;45.040;38.788;2022-11-13T09:29:07;651.50;;;183.17;;
66400;SDS011;53211;45.040;38.788;2022-11-13T09:31:53;659.13;;;183.70;;
66400;SDS011;53211;45.040;38.788;2022-11-13T09:34:38;632.85;;;204.95;;
66400;SDS011;53211;45.040;38.788;2022-11-13T09:37:22;556.15;;;259.25;;
66400;SDS011;53211;45.040;38.788;2022-11-13T09:40:08;647.53;;;196.45;;
66400;SDS011;53211;45.040;38.788;2022-11-13T09:43:13;642.83;;;198.43;;
66400;SDS011;53211;45.040;38.788;2022-11-13T09:49:29;631.15;;;209.00;;
66400;SDS011;53211;45.040;38.788;2022-11-13T09:52:31;648.20;;;200.33;;
66400;SDS011;53211;45.040;38.788;2022-11-13T09:55:22;658.93;;;186.63;;
66400;SDS011;53211;45.040;38.788;2022-11-13T10:01:13;647.00;;;195.40;;
66400;SDS011;53211;45.040;38.788;2022-11-13T10:04:10;639.73;;;203.87;;
66400;SDS011;53211;45.040;38.788;2022-11-13T10:07:19;640.70;;;197.30;;
66400;SDS011;53211;45.040;38.788;2022-11-13T10:13:39;634.40;;;205.10;;
66400;SDS011;53211;45.040;38.788;2022-11-13T10:19:35;635.10;;;205.25;;
66400;SDS011;53211;45.040;38.788;2022-11-13T10:22:38;586.10;;;261.23;;
66400;SDS011;53211;45.040;38.788;2022-11-13T10:25:32;663.00;;;181.00;;
66400;SDS011;53211;45.040;38.788;2022-11-13T10:28:27;603.60;;;227.15;;
66400;SDS011;53211;45.040;38.788;2022-11-13T10:31:11;608.50;;;235.77;;
66400;SDS011;53211;45.040;38.788;2022-11-13T10:33:56;653.05;;;193.75;;
66400;SDS011;53211;45.040;38.788;2022-11-13T10:39:54;664.40;;;185.30;;
66400;SDS011;53211;45.040;38.788;2022-11-13T10:42:51;649.13;;;197.40;;
66400;SDS011;53211;45.040;38.788;2022-11-13T10:45:36;656.05;;;186.95;;
66400;SDS011;53211;45.040;38.788;2022-11-13T10:48:21;661.40;;;183.40;;
66400;SDS011;53211;45.040;38.788;2022-11-13T10:54:47;660.28;;;186.88;;
66400;SDS011;53211;45.040;38.788;2022-11-13T10:57:35;662.38;;;185.63;;
66400;SDS011;53211;45.040;38.788;2022-11-13T11:00:30;619.20;;;223.50;;
66400;SDS011;53211;45.040;38.788;2022-11-13T11:03:47;666.05;;;181.75;;
66400;SDS011;53211;45.040;38.788;2022-11-13T11:06:47;672.33;;;183.50;;
66400;SDS011;53211;45.040;38.788;2022-11-13T11:09:56;670.23;;;179.10;;
66400;SDS011;53211;45.040;38.788;2022-11-13T11:12:51;672.83;;;173.00;;
66400;SDS011;53211;45.040;38.788;2022-11-13T11:16:41;613.10;;;239.95;;
66400;SDS011;53211;45.040;38.788;2022-11-13T11:19:35;657.85;;;185.25;;
66400;SDS011;53211;45.040;38.788;2022-11-13T11:22:28;609.35;;;233.95;;
66400;SDS011;53211;45.040;38.788;2022-11-13T11:25:36;614.80;;;227.20;;
66400;SDS011;53211;45.040;38.788;2022-11-13T11:28:41;635.90;;;201.05;;
66400;SDS011;53211;45.040;38.788;2022-11-13T11:34:42;617.60;;;215.90;;
66400;SDS011;53211;45.040;38.788;2022-11-13T11:37:38;632.35;;;206.35;;
66400;SDS011;53211;45.040;38.788;2022-11-13T11:40:35;638.55;;;211.15;;
66400;SDS011;53211;45.040;38.788;2022-11-13T11:43:33;634.50;;;207.80;;
66400;SDS011;53211;45.040;38.788;2022-11-13T11:46:45;662.33;;;179.63;;
66400;SDS011;53211;45.040;38.788;2022-11-13T11:49:29;665.15;;;185.80;;
66400;SDS011;53211;45.040;38.788;2022-11-13T11:55:22;640.95;;;202.45;;
66400;SDS011;53211;45.040;38.788;2022-11-13T12:04:25;635.75;;;211.30;;
66400;SDS011;53211;45.040;38.788;2022-11-13T12:20:24;669.20;;;186.80;;
66400;SDS011;53211;45.040;38.788;2022-11-13T12:26:27;695.15;;;168.15;;
66400;SDS011;53211;45.040;38.788;2022-11-13T12:35:33;661.70;;;185.00;;
66400;SDS011;53211;45.040;38.788;2022-11-13T12:44:50;654.95;;;191.45;;
66400;SDS011;53211;45.040;38.788;2022-11-13T12:47:42;657.65;;;185.40;;
66400;SDS011;53211;45.040;38.788;2022-11-13T12:50:29;643.70;;;202.75;;
66400;SDS011;53211;45.040;38.788;2022-11-13T12:53:22;658.33;;;189.83;;
66400;SDS011;53211;45.040;38.788;2022-11-13T12:56:13;676.07;;;171.40;;
66400;SDS011;53211;45.040;38.788;2022-11-13T13:08:02;683.10;;;169.60;;
66400;SDS011;53211;45.040;38.788;2022-11-13T13:17:19;669.75;;;177.60;;
66400;SDS011;53211;45.040;38.788;2022-11-13T13:20:26;670.00;;;179.80;;
66400;SDS011;53211;45.040;38.788;2022-11-13T13:23:23;695.00;;;164.60;;
66400;SDS011;53211;45.040;38.788;2022-11-13T13:26:23;624.27;;;213.90;;
66400;SDS011;53211;45.040;38.788;2022-11-13T13:29:21;631.40;;;202.20;;
66400;SDS011;53211;45.040;38.788;2022-11-13T13:32:21;631.55;;;204.70;;
66400;SDS011;53211;45.040;38.788;2022-11-13T13:35:14;628.50;;;207.37;;
66400;SDS011;53211;45.040;38.788;2022-11-13T13:47:25;621.30;;;208.60;;
66400;SDS011;53211;45.040;38.788;2022-11-13T13:50:15;631.50;;;196.85;;
66400;SDS011;53211;45.040;38.788;2022-11-13T13:53:03;641.70;;;191.65;;
66400;SDS011;53211;45.040;38.788;2022-11-13T13:55:51;631.30;;;207.25;;
66400;SDS011;53211;45.040;38.788;2022-11-13T13:58:39;660.75;;;178.65;;
66400;SDS011;53211;45.040;38.788;2022-11-13T14:01:28;646.80;;;192.20;;
66400;SDS011;53211;45.040;38.788;2022-11-13T14:04:17;653.55;;;184.25;;
66400;SDS011;53211;45.040;38.788;2022-11-13T14:07:04;647.70;;;187.30;;
66400;SDS011;53211;45.040;38.788;2022-11-13T14:10:14;645.25;;;185.05;;
66400;SDS011;53211;45.040;38.788;2022-11-13T14:13:01;639.25;;;185.10;;
66400;SDS011;53211;45.040;38.788;2022-11-13T14:15:46;646.97;;;181.57;;
66400;SDS011;53211;45.040;38.788;2022-11-13T14:18:31;630.40;;;189.85;;
66400;SDS011;53211;45.040;38.788;2022-11-13T14:21:19;625.10;;;195.90;;
66400;SDS011;53211;45.040;38.788;2022-11-13T14:24:52;630.75;;;195.70;;
66400;SDS011;53211;45.040;38.788;2022-11-13T14:27:54;645.40;;;181.60;;
66400;SDS011;53211;45.040;38.788;2022-11-13T14:31:06;630.67;;;190.07;;
66400;SDS011;53211;45.040;38.788;2022-11-13T14:34:15;628.87;;;192.80;;
66400;SDS011;53211;45.040;38.788;2022-11-13T14:43:24;624.87;;;203.53;;
66400;SDS011;53211;45.040;38.788;2022-11-13T14:46:27;634.25;;;191.50;;
66400;SDS011;53211;45.040;38.788;2022-11-13T14:49:31;627.60;;;212.97;;
66400;SDS011;53211;45.040;38.788;2022-11-13T14:52:21;650.63;;;189.87;;
66400;SDS011;53211;45.040;38.788;2022-11-13T14:55:19;626.20;;;198.40;;
66400;SDS011;53211;45.040;38.788;2022-11-13T14:58:14;625.90;;;193.03;;
66400;SDS011;53211;45.040;38.788;2022-11-13T15:01:17;628.47;;;198.57;;
66400;SDS011;53211;45.040;38.788;2022-11-13T15:04:07;632.20;;;196.90;;
66400;SDS011;53211;45.040;38.788;2022-11-13T15:13:34;650.70;;;184.00;;
66400;SDS011;53211;45.040;38.788;2022-11-13T15:16:21;644.80;;;191.13;;
66400;SDS011;53211;45.040;38.788;2022-11-13T15:19:14;640.25;;;189.85;;
66400;SDS011;53211;45.040;38.788;2022-11-13T15:22:01;634.75;;;206.75;;
66400;SDS011;53211;45.040;38.788;2022-11-13T15:24:46;635.35;;;198.60;;
66400;SDS011;53211;45.040;38.788;2022-11-13T15:27:30;615.95;;;201.70;;
66400;SDS011;53211;45.040;38.788;2022-11-13T15:30:14;655.13;;;177.18;;
66400;SDS011;53211;45.040;38.788;2022-11-13T15:32:59;606.90;;;207.70;;
66400;SDS011;53211;45.040;38.788;2022-11-13T15:35:45;613.35;;;204.15;;
66400;SDS011;53211;45.040;38.788;2022-11-13T15:38:29;622.00;;;205.10;;
66400;SDS011;53211;45.040;38.788;2022-11-13T15:41:15;620.53;;;201.93;;
66400;SDS011;53211;45.040;38.788;2022-11-13T15:44:13;618.30;;;201.00;;
66400;SDS011;53211;45.040;38.788;2022-11-13T15:46:58;623.85;;;192.40;;
66400;SDS011;53211;45.040;38.788;2022-11-13T15:49:42;628.75;;;189.70;;
66400;SDS011;53211;45.040;38.788;2022-11-13T15:52:34;629.60;;;193.10;;
66400;SDS011;53211;45.040;38.788;2022-11-13T15:55:23;636.95;;;186.60;;
66400;SDS011;53211;45.040;38.788;2022-11-13T15:58:13;640.03;;;186.97;;
66400;SDS011;53211;45.040;38.788;2022-11-13T16:01:01;639.80;;;183.95;;
66400;SDS011;53211;45.040;38.788;2022-11-13T16:03:46;643.70;;;183.40;;
66400;SDS011;53211;45.040;38.788;2022-11-13T16:06:30;657.40;;;173.35;;
66400;SDS011;53211;45.040;38.788;2022-11-13T16:09:18;663.10;;;168.05;;
66400;SDS011;53211;45.040;38.788;2022-11-13T16:12:03;659.60;;;169.80;;
66400;SDS011;53211;45.040;38.788;2022-11-13T16:15:11;651.25;;;173.30;;
66400;SDS011;53211;45.040;38.788;2022-11-13T16:18:25;607.90;;;205.47;;
66400;SDS011;53211;45.040;38.788;2022-11-13T16:21:13;613.10;;;200.60;;
66400;SDS011;53211;45.040;38.788;2022-11-13T16:23:57;652.40;;;172.05;;
66400;SDS011;53211;45.040;38.788;2022-11-13T16:26:43;651.35;;;170.15;;
66400;SDS011;53211;45.040;38.788;2022-11-13T16:29:32;647.67;;;173.30;;
66400;SDS011;53211;45.040;38.788;2022-11-13T16:32:16;669.05;;;167.45;;
66400;SDS011;53211;45.040;38.788;2022-11-13T16:35:01;662.15;;;162.75;;
66400;SDS011;53211;45.040;38.788;2022-11-13T16:37:45;662.22;;;163.15;;
66400;SDS011;53211;45.040;38.788;2022-11-13T16:40:30;656.15;;;174.65;;
66400;SDS011;53211;45.040;38.788;2022-11-13T16:43:14;656.03;;;173.27;;
66400;SDS011;53211;45.040;38.788;2022-11-13T16:45:59;665.10;;;162.40;;
66400;SDS011;53211;45.040;38.788;2022-11-13T16:48:43;664.50;;;162.80;;
66400;SDS011;53211;45.040;38.788;2022-11-13T16:51:28;665.10;;;162.10;;
66400;SDS011;53211;45.040;38.788;2022-11-13T16:54:12;666.95;;;162.20;;
66400;SDS011;53211;45.040;38.788;2022-11-13T16:56:57;687.70;;;157.10;;
66400;SDS011;53211;45.040;38.788;2022-11-13T16:59:42;679.92;;;159.60;;
66400;SDS011;53211;45.040;38.788;2022-11-13T17:02:26;665.03;;;167.73;;
66400;SDS011;53211;45.040;38.788;2022-11-13T17:05:11;666.55;;;166.25;;
66400;SDS011;53211;45.040;38.788;2022-11-13T17:07:57;667.40;;;163.85;;
66400;SDS011;53211;45.040;38.788;2022-11-13T17:10:43;674.00;;;163.90;;
66400;SDS011;53211;45.040;38.788;2022-11-13T17:13:27;658.50;;;172.20;;
66400;SDS011;53211;45.040;38.788;2022-11-13T17:16:12;663.60;;;167.70;;
66400;SDS011;53211;45.040;38.788;2022-11-13T17:18:58;661.80;;;164.40;;
66400;SDS011;53211;45.040;38.788;2022-11-13T17:21:42;675.70;;;167.13;;
66400;SDS011;53211;45.040;38.788;2022-11-13T17:24:27;658.40;;;166.80;;
66400;SDS011;53211;45.040;38.788;2022-11-13T17:27:11;658.30;;;178.40;;
66400;SDS011;53211;45.040;38.788;2022-11-13T17:29:56;664.70;;;168.20;;
66400;SDS011;53211;45.040;38.788;2022-11-13T17:32:40;665.40;;;168.60;;
66400;SDS011;53211;45.040;38.788;2022-11-13T17:35:25;667.07;;;164.87;;
66400;SDS011;53211;45.040;38.788;2022-11-13T17:38:11;674.05;;;164.80;;